createdAt,value
2022-12-18T00:01:35.479Z,18.52
2022-12-18T00:04:07.295Z,18.85
2022-12-18T00:06:35.542Z,15.02
2022-12-18T00:09:03.751Z,14.73
2022-12-18T00:11:31.765Z,17.10
2022-12-18T00:14:02.045Z,18.00
2022-12-18T00:16:34.030Z,16.75
2022-12-18T00:19:01.638Z,15.60
2022-12-18T00:21:32.055Z,16.77
2022-12-18T00:24:00.470Z,14.85
2022-12-18T00:26:33.866Z,17.20
2022-12-18T00:29:02.928Z,15.25
2022-12-18T00:31:34.712Z,15.40
2022-12-18T00:34:04.388Z,15.25
2022-12-18T00:36:34.438Z,16.88
2022-12-18T00:39:04.368Z,14.63
2022-12-18T00:41:49.809Z,15.57
2022-12-18T00:44:18.239Z,14.68
2022-12-18T00:46:46.152Z,17.73
2022-12-18T00:49:13.028Z,13.70
2022-12-18T00:51:39.876Z,13.57
2022-12-18T00:54:09.185Z,15.88
2022-12-18T00:56:51.229Z,16.58
2022-12-18T00:59:19.199Z,15.57
2022-12-18T01:01:46.826Z,15.65
2022-12-18T01:04:14.129Z,16.50
2022-12-18T01:06:41.399Z,12.65
2022-12-18T01:09:08.125Z,16.40
2022-12-18T01:11:34.817Z,17.00
2022-12-18T01:14:01.707Z,15.77
2022-12-18T01:16:30.857Z,16.67
2022-12-18T01:18:59.927Z,16.38
2022-12-18T01:21:26.610Z,17.30
2022-12-18T01:23:55.553Z,14.48
2022-12-18T01:26:22.778Z,14.70
2022-12-18T01:28:49.635Z,15.05
2022-12-18T01:31:22.122Z,15.35
2022-12-18T01:33:48.855Z,14.15
2022-12-18T01:36:23.567Z,13.48
2022-12-18T01:38:54.111Z,15.55
2022-12-18T01:41:24.327Z,15.77
2022-12-18T01:43:52.731Z,13.23
2022-12-18T01:46:21.390Z,13.23
2022-12-18T01:48:50.949Z,14.75
2022-12-18T01:51:17.943Z,12.98
2022-12-18T01:53:46.057Z,14.43
2022-12-18T01:56:20.741Z,15.75
2022-12-18T01:59:17.133Z,14.93
2022-12-18T02:01:43.983Z,12.63
2022-12-18T02:04:26.254Z,15.65
2022-12-18T02:07:24.540Z,13.77
2022-12-18T02:10:03.825Z,14.38
2022-12-18T02:12:53.823Z,15.75
2022-12-18T02:15:33.201Z,14.32
2022-12-18T02:18:18.421Z,13.68
2022-12-18T02:20:53.738Z,13.77
2022-12-18T02:23:40.913Z,15.65
2022-12-18T02:26:13.531Z,13.77
2022-12-18T02:28:46.631Z,15.88
2022-12-18T02:31:23.252Z,13.02
2022-12-18T02:33:52.058Z,17.92
2022-12-18T02:36:20.981Z,15.95
2022-12-18T02:38:48.682Z,15.68
2022-12-18T02:41:16.988Z,14.88
2022-12-18T02:43:53.890Z,14.05
2022-12-18T02:46:38.063Z,13.65
2022-12-18T02:49:28.642Z,18.02
2022-12-18T02:52:04.255Z,15.57
2022-12-18T02:54:59.184Z,14.80
2022-12-18T02:57:27.967Z,15.50
2022-12-18T03:00:08.652Z,13.70
2022-12-18T03:02:45.669Z,14.40
2022-12-18T03:05:30.908Z,14.02
2022-12-18T03:08:16.554Z,16.98
2022-12-18T03:11:05.110Z,14.13
2022-12-18T03:13:42.423Z,15.48
2022-12-18T03:16:16.354Z,14.18
2022-12-18T03:18:58.842Z,16.52
2022-12-18T03:21:37.863Z,14.43
2022-12-18T03:24:09.573Z,15.88
2022-12-18T03:26:39.885Z,15.07
2022-12-18T03:29:18.742Z,12.95
2022-12-18T03:31:53.470Z,15.60
2022-12-18T03:34:31.449Z,13.55
2022-12-18T03:36:58.595Z,14.98
2022-12-18T03:39:26.409Z,16.98
2022-12-18T03:42:01.305Z,18.92
2022-12-18T03:44:30.200Z,15.00
2022-12-18T03:47:05.986Z,15.35
2022-12-18T03:49:51.145Z,16.08
2022-12-18T03:52:43.622Z,12.77
2022-12-18T03:55:13.505Z,15.68
2022-12-18T03:57:41.941Z,16.10
2022-12-18T04:00:16.645Z,17.05
2022-12-18T04:02:49.107Z,15.43
2022-12-18T04:05:19.638Z,17.65
2022-12-18T04:07:48.938Z,18.08
2022-12-18T04:10:18.780Z,16.45
2022-12-18T04:12:47.975Z,18.80
2022-12-18T04:15:15.291Z,17.38
2022-12-18T04:17:51.121Z,18.10
2022-12-18T04:20:18.602Z,17.05
2022-12-18T04:22:51.011Z,16.17
2022-12-18T04:25:19.845Z,17.60
2022-12-18T04:27:46.520Z,20.27
2022-12-18T04:30:13.235Z,16.63
2022-12-18T04:32:44.713Z,18.30
2022-12-18T04:35:19.111Z,18.67
2022-12-18T04:37:45.761Z,19.00
2022-12-18T04:40:15.119Z,18.10
2022-12-18T04:42:42.006Z,15.88
2022-12-18T04:45:09.351Z,15.90
2022-12-18T04:47:36.038Z,20.08
2022-12-18T04:50:02.712Z,16.38
2022-12-18T04:52:29.436Z,17.70
2022-12-18T04:54:58.320Z,18.67
2022-12-18T04:57:25.051Z,16.67
2022-12-18T04:59:51.751Z,20.88
2022-12-18T05:02:18.493Z,17.25
2022-12-18T05:04:45.197Z,18.17
2022-12-18T05:07:18.928Z,23.60
2022-12-18T05:09:46.237Z,34.17
2022-12-18T05:12:12.947Z,36.58
2022-12-18T05:14:43.985Z,25.48
2022-12-18T05:17:10.671Z,34.00
2022-12-18T05:19:38.765Z,31.35
2022-12-18T05:22:07.904Z,26.75
2022-12-18T05:24:36.669Z,22.27
2022-12-18T05:27:03.422Z,25.17
2022-12-18T05:29:30.174Z,24.77
2022-12-18T05:31:56.836Z,23.05
2022-12-18T05:34:25.738Z,27.95
2022-12-18T05:36:54.847Z,20.92
2022-12-18T05:39:21.463Z,23.50
2022-12-18T05:41:48.119Z,22.05
2022-12-18T05:44:17.343Z,23.13
2022-12-18T05:46:44.187Z,21.85
2022-12-18T05:49:15.723Z,24.00
2022-12-18T05:51:44.541Z,25.05
2022-12-18T05:54:11.241Z,25.23
2022-12-18T05:56:44.170Z,27.17
2022-12-18T05:59:13.866Z,24.58
2022-12-18T06:01:40.579Z,20.48
2022-12-18T06:04:07.353Z,25.30
2022-12-18T06:06:34.017Z,21.88
2022-12-18T06:09:09.044Z,18.05
2022-12-18T06:11:37.612Z,21.98
2022-12-18T06:14:07.993Z,23.10
2022-12-18T06:16:34.734Z,23.17
2022-12-18T06:19:06.528Z,22.43
2022-12-18T06:21:35.849Z,22.02
2022-12-18T06:24:03.081Z,21.83
2022-12-18T06:26:29.733Z,20.65
2022-12-18T06:28:56.518Z,19.58
2022-12-18T06:31:23.416Z,22.00
2022-12-18T06:33:50.222Z,18.60
2022-12-18T06:36:19.395Z,19.38
2022-12-18T06:38:48.259Z,20.83
2022-12-18T06:41:19.395Z,18.25
2022-12-18T06:43:46.302Z,19.00
2022-12-18T06:46:15.637Z,19.08
2022-12-18T06:48:47.196Z,17.00
2022-12-18T06:51:17.663Z,18.20
2022-12-18T06:53:47.366Z,19.50
2022-12-18T06:56:14.264Z,20.83
2022-12-18T06:58:41.346Z,21.05
2022-12-18T07:01:11.939Z,18.17
2022-12-18T07:03:40.796Z,17.65
2022-12-18T07:06:18.262Z,22.50
2022-12-18T07:08:45.681Z,23.30
2022-12-18T07:11:13.328Z,18.30
2022-12-18T07:13:43.051Z,17.02
2022-12-18T07:16:18.372Z,19.50
2022-12-18T07:18:49.258Z,21.48
2022-12-18T07:21:20.251Z,19.23
2022-12-18T07:23:48.819Z,22.23
2022-12-18T07:26:20.597Z,19.50
2022-12-18T07:28:47.888Z,17.63
2022-12-18T07:31:22.917Z,22.15
2022-12-18T07:33:51.152Z,21.25
2022-12-18T07:36:26.845Z,20.45
2022-12-18T07:38:55.739Z,19.42
2022-12-18T07:41:24.720Z,21.02
2022-12-18T07:43:51.470Z,21.83
2022-12-18T07:46:19.353Z,17.13
2022-12-18T07:48:49.978Z,18.30
2022-12-18T07:51:18.108Z,19.42
2022-12-18T07:53:49.571Z,21.17
2022-12-18T07:56:28.515Z,18.48
2022-12-18T07:58:59.040Z,21.13
2022-12-18T08:01:28.227Z,18.35
2022-12-18T08:03:55.144Z,19.48
2022-12-18T08:06:22.545Z,19.50
2022-12-18T08:08:53.470Z,24.17
2022-12-18T08:11:22.340Z,29.20
2022-12-18T08:13:49.159Z,27.65
2022-12-18T08:16:19.991Z,28.05
2022-12-18T08:18:47.689Z,31.05
2022-12-18T08:21:24.315Z,23.10
2022-12-18T08:23:54.547Z,24.27
2022-12-18T08:26:22.244Z,26.98
2022-12-18T08:28:51.553Z,26.02
2022-12-18T08:31:19.408Z,28.17
2022-12-18T08:33:46.682Z,28.92
2022-12-18T08:36:13.752Z,28.58
2022-12-18T08:38:40.986Z,29.27
2022-12-18T08:41:15.354Z,33.72
2022-12-18T08:44:01.207Z,27.20
2022-12-18T08:46:35.706Z,30.95
2022-12-18T08:49:02.636Z,30.15
2022-12-18T08:51:29.839Z,31.27
2022-12-18T08:53:58.746Z,27.60
2022-12-18T08:56:25.515Z,29.70
2022-12-18T08:58:54.149Z,30.58
2022-12-18T09:01:21.461Z,28.03
2022-12-18T09:03:49.368Z,31.58
2022-12-18T09:06:24.837Z,30.30
2022-12-18T09:08:51.507Z,29.87
2022-12-18T09:11:23.518Z,29.47
2022-12-18T09:13:50.892Z,31.35
2022-12-18T09:16:18.253Z,30.87
2022-12-18T09:18:47.690Z,28.50
2022-12-18T09:21:20.612Z,37.50
2022-12-18T09:23:54.359Z,31.90
2022-12-18T09:26:22.618Z,28.80
2022-12-18T09:28:49.893Z,29.10
2022-12-18T09:31:17.878Z,32.23
2022-12-18T09:33:46.030Z,29.07
2022-12-18T09:36:15.247Z,33.43
2022-12-18T09:38:42.760Z,31.03
2022-12-18T09:41:34.438Z,32.53
2022-12-18T09:44:06.232Z,32.63
2022-12-18T09:46:41.483Z,32.23
2022-12-18T09:49:17.080Z,31.90
2022-12-18T09:51:50.085Z,32.43
2022-12-18T09:54:46.519Z,33.60
2022-12-18T09:57:25.498Z,35.83
2022-12-18T10:00:02.816Z,32.90
2022-12-18T10:02:33.501Z,38.17
2022-12-18T10:05:07.531Z,36.27
2022-12-18T10:07:44.048Z,35.50
2022-12-18T10:10:29.442Z,35.80
2022-12-18T10:13:17.819Z,34.03
2022-12-18T10:15:59.732Z,33.53
2022-12-18T10:18:59.912Z,35.17
2022-12-18T10:21:50.553Z,34.63
2022-12-18T10:24:34.902Z,34.97
2022-12-18T10:27:18.976Z,33.47
2022-12-18T10:29:46.668Z,35.07
2022-12-18T10:32:29.246Z,34.27
2022-12-18T10:35:00.809Z,34.13
2022-12-18T10:37:30.158Z,34.90
2022-12-18T10:40:08.556Z,35.80
2022-12-18T10:42:35.598Z,33.77
2022-12-18T10:45:09.688Z,34.23
2022-12-18T10:47:36.893Z,33.60
2022-12-18T10:50:04.315Z,31.70
2022-12-18T10:52:33.332Z,34.63
2022-12-18T10:55:04.163Z,34.45
2022-12-18T10:57:38.154Z,30.03
2022-12-18T11:00:28.386Z,32.43
2022-12-18T11:02:58.845Z,42.23
2022-12-18T11:05:31.836Z,33.80
2022-12-18T11:08:02.377Z,41.40
2022-12-18T11:10:31.996Z,45.27
2022-12-18T11:13:30.133Z,34.97
2022-12-18T11:16:00.246Z,36.20
2022-12-18T11:18:31.665Z,33.67
2022-12-18T11:21:08.630Z,31.20
2022-12-18T11:23:51.203Z,40.90
2022-12-18T11:26:18.418Z,32.83
2022-12-18T11:28:48.461Z,30.63
2022-12-18T11:31:28.501Z,31.87
2022-12-18T11:36:59.112Z,32.07
2022-12-18T11:39:39.627Z,32.97
2022-12-18T11:42:11.322Z,31.20
2022-12-18T11:45:16.376Z,31.43
2022-12-18T11:48:11.650Z,33.10
2022-12-18T11:50:38.323Z,32.73
2022-12-18T11:53:10.190Z,31.67
2022-12-18T11:55:53.249Z,33.83
2022-12-18T11:58:44.021Z,35.03
2022-12-18T12:01:31.980Z,31.60
2022-12-18T12:04:19.365Z,31.40
2022-12-18T12:07:04.735Z,27.43
2022-12-18T12:09:58.785Z,33.03
2022-12-18T12:12:51.492Z,31.97
2022-12-18T12:15:51.009Z,28.97
2022-12-18T12:18:26.619Z,33.33
2022-12-18T12:21:16.976Z,29.50
2022-12-18T12:24:10.666Z,31.53
2022-12-18T12:26:53.068Z,30.87
2022-12-18T12:29:38.035Z,28.87
2022-12-18T12:32:25.805Z,31.73
2022-12-18T12:35:26.350Z,31.33
2022-12-18T12:38:20.965Z,32.13
2022-12-18T12:41:30.517Z,29.73
2022-12-18T12:44:01.010Z,29.13
2022-12-18T12:46:33.509Z,28.77
2022-12-18T12:49:04.520Z,31.67
2022-12-18T12:51:41.709Z,30.90
2022-12-18T12:54:19.813Z,31.50
2022-12-18T12:57:06.587Z,29.10
2022-12-18T13:00:01.557Z,29.83
2022-12-18T13:02:43.400Z,31.23
2022-12-18T13:05:20.187Z,32.43
2022-12-18T13:08:07.068Z,31.63
2022-12-18T13:10:44.505Z,28.80
2022-12-18T13:13:13.309Z,31.90
2022-12-18T13:15:46.252Z,33.27
2022-12-18T13:18:18.893Z,32.00
2022-12-18T13:21:14.476Z,32.53
2022-12-18T13:23:42.049Z,29.37
2022-12-18T13:26:11.637Z,28.90
2022-12-18T13:28:47.699Z,31.43
2022-12-18T13:31:35.515Z,33.57
2022-12-18T13:34:27.610Z,32.80
2022-12-18T13:36:56.975Z,31.97
2022-12-18T13:39:35.247Z,31.27
2022-12-18T13:42:05.482Z,34.50
2022-12-18T13:44:41.381Z,35.07
2022-12-18T13:47:34.770Z,31.13
2022-12-18T13:50:09.840Z,31.57
2022-12-18T13:52:40.167Z,35.73
2022-12-18T13:55:17.043Z,35.07
2022-12-18T13:57:43.734Z,32.67
2022-12-18T14:00:29.640Z,32.67
2022-12-18T14:03:00.052Z,35.58
2022-12-18T14:05:30.718Z,35.07
2022-12-18T14:08:02.545Z,32.80
2022-12-18T14:10:49.448Z,32.83
2022-12-18T14:13:35.101Z,35.87
2022-12-18T14:16:06.857Z,34.37
2022-12-18T14:18:43.180Z,35.23
2022-12-18T14:21:26.430Z,36.30
2022-12-18T14:24:20.022Z,33.27
2022-12-18T14:26:50.872Z,33.33
2022-12-18T14:29:20.700Z,37.13
2022-12-18T14:32:18.647Z,31.93
2022-12-18T14:34:55.125Z,30.53
2022-12-18T14:37:27.153Z,31.63
2022-12-18T14:40:08.707Z,32.37
2022-12-18T14:42:37.957Z,35.53
2022-12-18T14:48:33.715Z,36.45
2022-12-18T14:51:25.866Z,30.40
2022-12-18T14:53:59.323Z,29.20
2022-12-18T14:56:33.158Z,33.17
2022-12-18T14:59:13.642Z,32.37
2022-12-18T15:02:14.365Z,31.57
2022-12-18T15:04:44.594Z,33.17
2022-12-18T15:07:14.739Z,32.30
2022-12-18T15:09:43.669Z,32.07
2022-12-18T15:12:34.063Z,31.60
2022-12-18T15:15:00.750Z,35.03
2022-12-18T15:17:28.082Z,33.20
2022-12-18T15:20:04.832Z,33.70
2022-12-18T15:22:36.453Z,29.23
2022-12-18T15:25:31.073Z,32.40
2022-12-18T15:28:02.366Z,31.10
2022-12-18T15:30:32.328Z,33.53
2022-12-18T15:33:25.849Z,33.57
2022-12-18T15:36:09.960Z,32.63
2022-12-18T15:38:36.678Z,32.03
2022-12-18T15:41:14.124Z,37.00
2022-12-18T15:43:41.663Z,32.43
2022-12-18T15:46:19.990Z,34.40
2022-12-18T15:48:49.403Z,30.77
2022-12-18T15:51:25.181Z,33.97
2022-12-18T15:53:55.545Z,30.27
2022-12-18T15:56:43.092Z,30.53
2022-12-18T15:59:18.368Z,34.03
2022-12-18T16:01:50.229Z,33.67
2022-12-18T16:04:21.167Z,29.03
2022-12-18T16:07:14.536Z,28.10
2022-12-18T16:09:39.650Z,28.67
2022-12-18T16:12:07.702Z,30.50
2022-12-18T16:14:35.229Z,32.10
2022-12-18T16:17:06.933Z,27.00
2022-12-18T16:19:33.621Z,30.13
2022-12-18T16:22:02.692Z,31.92
2022-12-18T16:24:31.697Z,27.50
2022-12-18T16:27:00.261Z,26.80
2022-12-18T16:29:28.607Z,28.80
2022-12-18T16:32:00.298Z,26.40
2022-12-18T16:34:29.960Z,29.58
2022-12-18T16:37:06.185Z,30.67
2022-12-18T16:39:36.505Z,28.67
2022-12-18T16:42:23.592Z,29.97
2022-12-18T16:44:52.888Z,25.13
2022-12-18T16:47:20.097Z,26.30
2022-12-18T16:49:46.964Z,28.57
2022-12-18T16:52:14.623Z,27.93
2022-12-18T16:54:43.527Z,26.60
2022-12-18T16:57:16.409Z,28.50
2022-12-18T16:59:43.356Z,24.97
2022-12-18T17:02:24.523Z,27.33
2022-12-18T17:04:54.738Z,27.20
2022-12-18T17:07:21.605Z,27.00
2022-12-18T17:09:51.128Z,27.60
2022-12-18T17:12:18.136Z,26.33
2022-12-18T17:14:45.113Z,26.47
2022-12-18T17:17:21.448Z,29.27
2022-12-18T17:19:52.043Z,28.67
2022-12-18T17:22:19.561Z,29.13
2022-12-18T17:24:49.946Z,28.73
2022-12-18T17:27:16.638Z,27.20
2022-12-18T17:29:47.771Z,24.77
2022-12-18T17:32:17.032Z,25.80
2022-12-18T17:34:43.797Z,24.80
2022-12-18T17:37:10.648Z,27.73
2022-12-18T17:39:39.796Z,26.20
2022-12-18T17:42:06.927Z,27.27
2022-12-18T17:44:35.260Z,27.07
2022-12-18T17:47:02.395Z,24.90
2022-12-18T17:49:31.675Z,28.17
2022-12-18T17:52:00.467Z,25.27
2022-12-18T17:54:27.222Z,27.33
2022-12-18T17:56:56.389Z,24.60
2022-12-18T17:59:23.076Z,26.00
2022-12-18T18:01:49.876Z,26.43
2022-12-18T18:04:16.738Z,29.23
2022-12-18T18:06:43.778Z,28.23
2022-12-18T18:09:16.618Z,28.93
2022-12-18T18:12:03.389Z,31.40
2022-12-18T18:14:30.895Z,29.83
2022-12-18T18:17:04.457Z,29.57
2022-12-18T18:19:32.578Z,32.53
2022-12-18T18:21:59.265Z,33.07
2022-12-18T18:24:28.280Z,39.40
2022-12-18T18:26:55.000Z,34.00
2022-12-18T18:29:26.613Z,33.90
2022-12-18T18:31:57.065Z,36.93
2022-12-18T18:34:26.693Z,33.13
2022-12-18T18:36:53.455Z,34.77
2022-12-18T18:39:20.946Z,33.77
2022-12-18T18:41:48.655Z,34.43
2022-12-18T18:44:18.368Z,35.27
2022-12-18T18:46:48.079Z,40.90
2022-12-18T18:49:15.425Z,39.60
2022-12-18T18:51:44.352Z,40.37
2022-12-18T18:54:11.204Z,41.57
2022-12-18T18:57:03.797Z,43.35
2022-12-18T18:59:29.151Z,44.97
2022-12-18T19:02:04.197Z,42.90
2022-12-18T19:04:33.257Z,42.67
2022-12-18T19:07:00.043Z,47.43
2022-12-18T19:09:29.795Z,46.23
2022-12-18T19:12:17.998Z,46.90
2022-12-18T19:14:47.073Z,41.90
2022-12-18T19:17:13.765Z,46.73
2022-12-18T19:19:44.287Z,48.57
2022-12-18T19:22:11.396Z,45.23
2022-12-18T19:24:40.705Z,44.83
2022-12-18T19:27:10.002Z,49.13
2022-12-18T19:29:36.844Z,50.38
2022-12-18T19:32:04.819Z,44.97
2022-12-18T19:34:33.632Z,52.13
2022-12-18T19:37:03.534Z,47.33
2022-12-18T19:39:32.514Z,51.50
2022-12-18T19:41:59.221Z,50.63
2022-12-18T19:44:28.277Z,45.57
2022-12-18T19:46:57.115Z,47.23
2022-12-18T19:49:23.766Z,46.83
2022-12-18T19:51:56.320Z,48.00
2022-12-18T19:54:25.711Z,44.83
2022-12-18T19:56:55.605Z,47.23
2022-12-18T19:59:22.561Z,47.40
2022-12-18T20:01:50.466Z,47.10
2022-12-18T20:04:22.138Z,43.53
2022-12-18T20:06:53.179Z,45.73
2022-12-18T20:09:23.473Z,45.60
2022-12-18T20:11:50.620Z,45.33
2022-12-18T20:14:22.734Z,47.83
2022-12-18T20:16:53.504Z,44.90
2022-12-18T20:19:21.623Z,43.63
2022-12-18T20:21:53.284Z,45.30
2022-12-18T20:24:20.132Z,44.07
2022-12-18T20:26:49.250Z,48.67
2022-12-18T20:29:16.310Z,50.28
2022-12-18T20:31:43.049Z,49.17
2022-12-18T20:34:12.126Z,45.40
2022-12-18T20:36:39.823Z,45.67
2022-12-18T20:39:08.788Z,49.20
2022-12-18T20:41:39.498Z,48.50
2022-12-18T20:44:21.717Z,50.17
2022-12-18T20:46:57.880Z,47.43
2022-12-18T20:49:27.208Z,44.93
2022-12-18T20:51:56.237Z,44.50
2022-12-18T20:54:25.486Z,46.83
2022-12-18T20:56:52.419Z,46.93
2022-12-18T20:59:22.939Z,47.97
2022-12-18T21:01:49.934Z,50.45
2022-12-18T21:04:18.952Z,55.10
2022-12-18T21:06:52.061Z,49.33
2022-12-18T21:09:21.089Z,58.80
2022-12-18T21:12:07.182Z,50.97
2022-12-18T21:14:34.167Z,48.30
2022-12-18T21:17:03.637Z,48.07
2022-12-18T21:19:32.585Z,49.30
2022-12-18T21:21:59.303Z,45.80
2022-12-18T21:24:26.358Z,45.87
2022-12-18T21:27:00.091Z,43.33
2022-12-18T21:29:26.853Z,46.93
2022-12-18T21:31:54.830Z,41.73
2022-12-18T21:34:25.564Z,42.70
2022-12-18T21:36:53.107Z,46.50
2022-12-18T21:39:21.938Z,41.37
2022-12-18T21:42:08.689Z,41.10
2022-12-18T21:44:41.836Z,37.40
2022-12-18T21:47:22.091Z,40.97
2022-12-18T21:49:52.568Z,40.40
2022-12-18T21:52:20.431Z,44.57
2022-12-18T21:54:51.462Z,37.87
2022-12-18T21:57:18.657Z,37.93
2022-12-18T21:59:48.734Z,36.40
2022-12-18T22:02:22.425Z,38.70
2022-12-18T22:04:49.352Z,38.27
2022-12-18T22:07:19.399Z,37.47
2022-12-18T22:09:46.149Z,35.43
2022-12-18T22:12:13.658Z,38.50
2022-12-18T22:14:40.291Z,40.37
2022-12-18T22:17:07.083Z,35.53
2022-12-18T22:19:41.045Z,39.47
2022-12-18T22:22:12.071Z,36.00
2022-12-18T22:24:38.696Z,38.23
2022-12-18T22:27:05.649Z,37.13
2022-12-18T22:29:51.061Z,37.10
2022-12-18T22:32:22.975Z,38.80
2022-12-18T22:35:04.886Z,38.57
2022-12-18T22:37:37.028Z,36.83
2022-12-18T22:40:07.608Z,35.60
2022-12-18T22:42:35.397Z,37.23
2022-12-18T22:45:02.106Z,36.30
2022-12-18T22:47:30.324Z,38.50
2022-12-18T22:49:57.938Z,38.30
2022-12-18T22:52:26.884Z,38.63
2022-12-18T22:54:54.415Z,41.83
2022-12-18T22:57:24.245Z,37.93
2022-12-18T22:59:53.406Z,36.03
2022-12-18T23:02:20.415Z,33.90
2022-12-18T23:04:47.622Z,35.77
2022-12-18T23:07:17.267Z,39.00
2022-12-18T23:09:49.171Z,39.93
2022-12-18T23:12:19.011Z,38.93
2022-12-18T23:14:48.316Z,38.63
2022-12-18T23:17:14.912Z,35.70
2022-12-18T23:19:48.560Z,36.10
2022-12-18T23:22:18.645Z,38.30
2022-12-18T23:24:46.021Z,32.23
2022-12-18T23:27:14.877Z,37.90
2022-12-18T23:29:41.707Z,35.77
2022-12-18T23:32:09.630Z,35.33
2022-12-18T23:34:38.515Z,32.20
2022-12-18T23:37:05.149Z,32.87
2022-12-18T23:39:31.770Z,34.80
2022-12-18T23:42:01.620Z,33.13
2022-12-18T23:44:32.144Z,34.80
2022-12-18T23:46:58.864Z,34.13
2022-12-18T23:49:25.642Z,32.87
2022-12-18T23:51:54.326Z,32.17
2022-12-18T23:54:32.688Z,32.87
2022-12-18T23:57:00.478Z,32.20
2022-12-18T23:59:27.525Z,32.20
